createdAt,value
2018-05-10T00:00:19.565Z,9.83
2018-05-10T00:02:47.132Z,10.87
2018-05-10T00:05:14.851Z,10.77
2018-05-10T00:07:42.427Z,11.13
2018-05-10T00:10:09.940Z,8.80
2018-05-10T00:12:37.480Z,10.23
2018-05-10T00:15:05.022Z,10.80
2018-05-10T00:17:32.577Z,11.40
2018-05-10T00:20:00.126Z,12.20
2018-05-10T00:22:27.665Z,11.73
2018-05-10T00:24:55.202Z,12.70
2018-05-10T00:27:22.733Z,11.93
2018-05-10T00:29:50.288Z,12.60
2018-05-10T00:32:18.638Z,12.63
2018-05-10T00:34:46.198Z,12.80
2018-05-10T00:37:14.793Z,13.20
2018-05-10T00:39:42.335Z,12.83
2018-05-10T00:42:09.884Z,12.93
2018-05-10T00:44:37.426Z,14.07
2018-05-10T00:47:04.989Z,11.60
2018-05-10T00:49:32.524Z,11.57
2018-05-10T00:52:00.862Z,12.40
2018-05-10T00:54:40.979Z,13.40
2018-05-10T00:57:08.529Z,13.27
2018-05-10T00:59:36.829Z,13.63
2018-05-10T01:02:05.147Z,12.57
2018-05-10T01:04:32.695Z,13.30
2018-05-10T01:07:00.245Z,11.27
2018-05-10T01:09:27.794Z,12.50
2018-05-10T01:11:56.098Z,11.60
2018-05-10T01:14:24.399Z,12.40
2018-05-10T01:16:51.956Z,12.70
2018-05-10T01:19:19.482Z,12.57
2018-05-10T01:21:47.039Z,13.90
2018-05-10T01:24:15.401Z,13.63
2018-05-10T01:26:42.941Z,13.13
2018-05-10T01:29:10.498Z,13.97
2018-05-10T01:31:38.041Z,12.97
2018-05-10T01:34:05.585Z,12.77
2018-05-10T01:36:33.167Z,13.43
2018-05-10T01:39:01.469Z,14.23
2018-05-10T01:41:29.772Z,13.70
2018-05-10T01:43:58.072Z,13.53
2018-05-10T01:46:26.396Z,14.40
2018-05-10T01:48:53.931Z,14.50
2018-05-10T01:51:21.471Z,15.90
2018-05-10T01:53:49.038Z,15.00
2018-05-10T01:56:17.386Z,14.60
2018-05-10T01:58:45.044Z,13.20
2018-05-10T02:01:12.611Z,14.40
2018-05-10T02:03:40.930Z,14.57
2018-05-10T02:06:08.471Z,14.17
2018-05-10T02:08:35.997Z,14.70
2018-05-10T02:11:03.563Z,13.57
2018-05-10T02:13:31.886Z,14.27
2018-05-10T02:15:59.420Z,15.30
2018-05-10T02:18:26.962Z,14.27
2018-05-10T02:20:55.259Z,16.00
2018-05-10T02:23:22.794Z,13.13
2018-05-10T02:25:50.336Z,17.40
2018-05-10T02:28:18.649Z,15.40
2018-05-10T02:30:46.350Z,14.60
2018-05-10T02:33:14.354Z,15.23
2018-05-10T02:35:41.897Z,14.10
2018-05-10T02:38:09.445Z,14.00
2018-05-10T02:40:36.969Z,14.47
2018-05-10T02:43:04.519Z,12.93
2018-05-10T02:45:32.840Z,15.17
2018-05-10T02:48:00.390Z,14.27
2018-05-10T02:50:27.911Z,12.40
2018-05-10T02:52:55.454Z,15.17
2018-05-10T02:55:22.986Z,14.27
2018-05-10T02:57:50.529Z,14.47
2018-05-10T03:00:18.067Z,13.70
2018-05-10T03:02:45.658Z,13.77
2018-05-10T03:05:13.217Z,13.53
2018-05-10T03:07:40.746Z,14.17
2018-05-10T03:10:08.275Z,14.87
2018-05-10T03:12:35.829Z,15.57
2018-05-10T03:15:03.397Z,13.57
2018-05-10T03:17:30.938Z,14.80
2018-05-10T03:19:58.493Z,13.17
2018-05-10T03:22:26.808Z,15.97
2018-05-10T03:24:54.344Z,16.97
2018-05-10T03:27:21.890Z,16.80
2018-05-10T03:29:50.289Z,19.70
2018-05-10T03:32:18.648Z,17.10
2018-05-10T03:34:46.228Z,17.63
2018-05-10T03:37:15.049Z,17.37
2018-05-10T03:39:42.586Z,17.73
2018-05-10T03:42:10.129Z,15.53
2018-05-10T03:44:38.416Z,16.97
2018-05-10T03:47:05.983Z,18.07
2018-05-10T03:49:33.530Z,19.27
2018-05-10T03:52:01.074Z,18.90
2018-05-10T03:54:28.617Z,16.77
2018-05-10T03:56:56.200Z,18.20
2018-05-10T03:59:23.751Z,16.33
2018-05-10T04:01:52.054Z,16.80
2018-05-10T04:04:32.439Z,17.43
2018-05-10T04:07:12.695Z,17.00
2018-05-10T04:09:52.251Z,17.50
2018-05-10T04:12:19.800Z,16.30
2018-05-10T04:14:48.156Z,16.00
2018-05-10T04:17:15.721Z,17.27
2018-05-10T04:19:43.300Z,16.80
2018-05-10T04:22:10.833Z,17.50
2018-05-10T04:24:39.304Z,16.83
2018-05-10T04:27:06.831Z,16.80
2018-05-10T04:29:34.505Z,17.80
2018-05-10T04:32:02.845Z,17.20
2018-05-10T04:34:30.365Z,16.47
2018-05-10T04:36:57.883Z,16.00
2018-05-10T04:39:25.434Z,14.47
2018-05-10T04:41:52.960Z,15.13
2018-05-10T04:44:20.570Z,15.90
2018-05-10T04:46:48.100Z,15.20
2018-05-10T04:49:15.743Z,14.17
2018-05-10T04:51:43.274Z,15.20
2018-05-10T04:54:11.597Z,15.10
2018-05-10T04:56:39.149Z,17.57
2018-05-10T04:59:06.694Z,17.53
2018-05-10T05:01:34.225Z,18.53
2018-05-10T05:04:02.544Z,16.53
2018-05-10T05:06:30.073Z,16.07
2018-05-10T05:08:57.750Z,15.67
2018-05-10T05:11:25.231Z,16.00
2018-05-10T05:13:52.775Z,15.83
2018-05-10T05:16:20.317Z,16.83
2018-05-10T05:18:47.898Z,15.73
2018-05-10T05:21:15.461Z,15.70
2018-05-10T05:23:43.217Z,16.00
2018-05-10T05:26:10.781Z,16.73
2018-05-10T05:28:38.308Z,16.87
2018-05-10T05:31:05.874Z,16.93
2018-05-10T05:33:34.243Z,16.87
2018-05-10T05:36:05.357Z,18.30
2018-05-10T05:38:32.934Z,18.47
2018-05-10T05:41:00.505Z,19.40
2018-05-10T05:43:29.524Z,18.90
2018-05-10T05:45:56.920Z,17.97
2018-05-10T05:48:24.481Z,18.33
2018-05-10T05:50:52.106Z,18.63
2018-05-10T05:53:19.635Z,19.07
2018-05-10T05:55:47.196Z,19.43
2018-05-10T05:58:14.746Z,19.30
2018-05-10T06:00:42.283Z,19.53
2018-05-10T06:03:09.846Z,19.43
2018-05-10T06:05:37.389Z,33.97
2018-05-10T06:08:04.950Z,20.60
2018-05-10T06:10:32.485Z,20.70
2018-05-10T06:13:00.063Z,21.37
2018-05-10T06:15:27.693Z,19.70
2018-05-10T06:17:55.195Z,29.13
2018-05-10T06:20:22.750Z,21.27
2018-05-10T06:22:50.307Z,19.93
2018-05-10T06:25:17.905Z,20.50
2018-05-10T06:27:45.458Z,21.10
2018-05-10T06:30:13.023Z,21.53
2018-05-10T06:32:40.598Z,20.60
2018-05-10T06:35:08.155Z,20.80
2018-05-10T06:37:35.719Z,20.80
2018-05-10T06:40:03.357Z,22.33
2018-05-10T06:42:30.909Z,21.43
2018-05-10T06:44:58.461Z,20.77
2018-05-10T06:47:26.011Z,21.03
2018-05-10T06:49:53.547Z,23.57
2018-05-10T06:52:21.185Z,22.43
2018-05-10T06:54:48.736Z,23.10
2018-05-10T06:57:16.287Z,23.83
2018-05-10T06:59:43.828Z,23.93
2018-05-10T07:02:11.379Z,22.57
2018-05-10T07:04:38.927Z,23.70
2018-05-10T07:07:06.481Z,24.30
2018-05-10T07:09:34.186Z,22.77
2018-05-10T07:12:01.560Z,22.27
2018-05-10T07:14:29.884Z,22.83
2018-05-10T07:16:57.421Z,25.07
2018-05-10T07:19:24.982Z,26.43
2018-05-10T07:21:52.727Z,28.20
2018-05-10T07:24:20.289Z,29.47
2018-05-10T07:26:47.861Z,28.70
2018-05-10T07:29:15.398Z,31.93
2018-05-10T07:31:43.704Z,31.47
2018-05-10T07:34:11.265Z,32.30
2018-05-10T07:36:38.827Z,30.57
2018-05-10T07:39:06.384Z,32.47
2018-05-10T07:41:33.918Z,33.20
2018-05-10T07:44:01.500Z,36.23
2018-05-10T07:46:29.036Z,35.93
2018-05-10T07:48:56.606Z,37.13
2018-05-10T07:51:24.140Z,36.77
2018-05-10T07:53:52.494Z,37.73
2018-05-10T07:56:20.066Z,37.13
2018-05-10T07:58:47.611Z,36.00
2018-05-10T08:01:15.544Z,38.03
2018-05-10T08:03:43.086Z,35.37
2018-05-10T08:06:10.624Z,38.27
2018-05-10T08:08:38.169Z,42.80
2018-05-10T08:11:06.487Z,41.77
2018-05-10T08:13:34.055Z,44.87
2018-05-10T08:16:01.596Z,44.17
2018-05-10T08:18:29.168Z,45.50
2018-05-10T08:20:56.694Z,45.77
2018-05-10T08:23:24.283Z,45.83
2018-05-10T08:25:51.867Z,47.67
2018-05-10T08:28:19.413Z,50.13
2018-05-10T08:30:46.960Z,49.47
2018-05-10T08:33:14.525Z,50.27
2018-05-10T08:35:42.837Z,51.80
2018-05-10T08:38:10.414Z,51.67
2018-05-10T08:40:38.941Z,52.50
2018-05-10T08:43:06.492Z,55.93
2018-05-10T08:45:34.173Z,61.90
2018-05-10T08:48:01.729Z,62.20
2018-05-10T08:50:29.271Z,65.97
2018-05-10T08:52:56.810Z,58.03
2018-05-10T08:55:24.345Z,57.13
2018-05-10T08:57:56.111Z,55.50
2018-05-10T09:00:23.730Z,58.10
2018-05-10T09:02:51.313Z,58.17
2018-05-10T09:05:18.878Z,55.53
2018-05-10T09:07:47.190Z,57.10
2018-05-10T09:10:15.632Z,54.40
2018-05-10T09:12:43.117Z,53.37
2018-05-10T09:15:10.721Z,54.83
2018-05-10T09:17:38.279Z,52.17
2018-05-10T09:20:05.855Z,50.70
2018-05-10T09:22:33.408Z,53.40
2018-05-10T09:25:00.997Z,54.30
2018-05-10T09:27:32.788Z,55.23
2018-05-10T09:30:00.403Z,56.97
2018-05-10T09:32:28.717Z,53.83
2018-05-10T09:34:56.266Z,54.50
2018-05-10T09:37:23.865Z,51.83
2018-05-10T09:39:51.419Z,52.07
2018-05-10T09:42:18.970Z,49.37
2018-05-10T09:44:46.541Z,50.60
2018-05-10T09:47:14.081Z,47.87
2018-05-10T09:49:41.621Z,42.40
2018-05-10T09:52:09.186Z,31.20
2018-05-10T09:54:36.721Z,31.83
2018-05-10T09:57:05.043Z,26.20
2018-05-10T09:59:32.596Z,27.10
2018-05-10T10:02:00.131Z,27.23
2018-05-10T10:04:27.669Z,27.27
2018-05-10T10:06:55.967Z,23.57
2018-05-10T10:09:23.521Z,20.33
2018-05-10T10:11:51.113Z,24.77
2018-05-10T10:14:18.724Z,26.37
2018-05-10T10:16:47.028Z,26.70
2018-05-10T10:19:14.757Z,18.63
2018-05-10T10:21:43.084Z,22.80
2018-05-10T10:24:10.664Z,22.23
2018-05-10T10:26:38.217Z,21.90
2018-05-10T10:29:05.769Z,23.17
2018-05-10T10:31:33.311Z,26.00
2018-05-10T10:34:00.870Z,25.73
2018-05-10T10:36:28.415Z,32.40
2018-05-10T10:38:55.963Z,32.80
2018-05-10T10:41:24.267Z,37.47
2018-05-10T10:43:51.806Z,31.43
2018-05-10T10:46:19.348Z,33.47
2018-05-10T10:48:46.907Z,28.00
2018-05-10T10:51:15.222Z,28.47
2018-05-10T10:53:42.776Z,22.17
2018-05-10T10:56:10.295Z,22.03
2018-05-10T10:58:38.628Z,15.50
2018-05-10T11:01:06.160Z,18.20
2018-05-10T11:03:33.688Z,18.73
2018-05-10T11:06:02.000Z,16.23
2018-05-10T11:08:29.540Z,18.40
2018-05-10T11:10:57.078Z,16.70
2018-05-10T11:13:25.435Z,15.97
2018-05-10T11:15:52.975Z,13.57
2018-05-10T11:18:20.516Z,12.87
2018-05-10T11:20:48.069Z,12.07
2018-05-10T11:23:15.596Z,10.97
2018-05-10T11:25:43.959Z,12.60
2018-05-10T11:28:12.267Z,11.37
2018-05-10T11:30:39.807Z,10.07
2018-05-10T11:33:18.982Z,10.07
2018-05-10T11:35:46.498Z,10.67
2018-05-10T11:38:14.828Z,10.70
2018-05-10T11:40:42.380Z,10.80
2018-05-10T11:43:09.931Z,9.20
2018-05-10T11:45:37.473Z,9.70
2018-05-10T11:48:05.016Z,7.20
2018-05-10T11:50:32.563Z,7.20
2018-05-10T11:53:00.088Z,7.63
2018-05-10T11:55:27.637Z,5.63
2018-05-10T11:58:00.253Z,6.17
2018-05-10T12:00:28.565Z,5.10
2018-05-10T12:02:56.107Z,5.00
2018-05-10T12:05:23.654Z,5.07
2018-05-10T12:07:51.940Z,5.30
2018-05-10T12:10:19.625Z,4.77
2018-05-10T12:12:47.220Z,5.73
2018-05-10T12:15:14.758Z,5.17
2018-05-10T12:17:42.298Z,4.53
2018-05-10T12:20:09.854Z,3.63
2018-05-10T12:22:37.391Z,5.03
2018-05-10T12:25:04.941Z,3.60
2018-05-10T12:27:33.251Z,4.30
2018-05-10T12:30:00.796Z,4.07
2018-05-10T12:32:28.331Z,3.97
2018-05-10T12:34:55.860Z,4.00
2018-05-10T12:37:23.386Z,5.80
2018-05-10T12:39:52.053Z,4.17
2018-05-10T12:42:31.027Z,4.13
2018-05-10T12:44:58.594Z,4.80
2018-05-10T12:47:26.116Z,4.60
2018-05-10T12:49:53.651Z,4.93
2018-05-10T12:52:21.203Z,4.43
2018-05-10T12:54:49.501Z,4.50
2018-05-10T12:57:17.053Z,5.07
2018-05-10T12:59:45.533Z,4.00
2018-05-10T13:02:13.065Z,3.73
2018-05-10T13:04:47.745Z,4.27
2018-05-10T13:07:15.282Z,3.77
2018-05-10T13:09:42.992Z,3.90
2018-05-10T13:12:17.785Z,4.50
2018-05-10T13:14:48.802Z,4.40
2018-05-10T13:17:16.326Z,4.23
2018-05-10T13:19:43.865Z,4.23
2018-05-10T13:22:11.396Z,4.03
2018-05-10T13:24:38.954Z,3.77
2018-05-10T13:27:06.504Z,4.60
2018-05-10T13:30:00.602Z,5.70
2018-05-10T13:32:35.949Z,4.23
2018-05-10T13:35:07.033Z,4.90
2018-05-10T13:37:34.889Z,4.07
2018-05-10T13:40:03.213Z,4.37
2018-05-10T13:42:30.797Z,4.80
2018-05-10T13:45:01.492Z,4.87
2018-05-10T13:47:29.095Z,4.53
2018-05-10T13:49:57.342Z,4.43
2018-05-10T13:52:24.909Z,4.60
2018-05-10T13:54:58.539Z,4.40
2018-05-10T13:57:29.289Z,4.73
2018-05-10T14:00:07.780Z,4.20
2018-05-10T14:02:35.309Z,3.90
2018-05-10T14:05:02.840Z,4.00
2018-05-10T14:07:30.377Z,3.70
2018-05-10T14:10:02.571Z,3.00
2018-05-10T14:12:30.115Z,3.10
2018-05-10T14:14:57.673Z,2.50
2018-05-10T14:17:26.035Z,3.23
2018-05-10T14:19:56.510Z,2.50
2018-05-10T14:22:24.075Z,2.90
2018-05-10T14:24:52.628Z,3.00
2018-05-10T14:27:20.224Z,3.03
2018-05-10T14:29:47.793Z,3.67
2018-05-10T14:32:15.768Z,3.50
2018-05-10T14:34:43.744Z,4.13
2018-05-10T14:37:11.385Z,4.13
2018-05-10T14:39:39.052Z,3.57
2018-05-10T14:42:06.616Z,3.03
2018-05-10T14:44:34.401Z,2.90
2018-05-10T14:47:01.945Z,2.80
2018-05-10T14:49:29.581Z,2.80
2018-05-10T14:51:57.145Z,2.23
2018-05-10T14:54:24.688Z,2.40
2018-05-10T14:56:52.212Z,2.70
2018-05-10T14:59:19.828Z,2.23
2018-05-10T15:01:47.415Z,2.30
2018-05-10T15:04:14.963Z,2.20
2018-05-10T15:06:42.520Z,2.07
2018-05-10T15:09:10.051Z,1.97
2018-05-10T15:11:37.618Z,2.70
2018-05-10T15:14:05.170Z,3.17
2018-05-10T15:16:32.711Z,3.43
2018-05-10T15:19:00.233Z,3.07
2018-05-10T15:21:30.466Z,2.83
2018-05-10T15:23:58.015Z,3.17
2018-05-10T15:26:25.543Z,3.43
2018-05-10T15:28:53.122Z,2.87
2018-05-10T15:31:20.676Z,3.30
2018-05-10T15:33:48.242Z,3.20
2018-05-10T15:36:15.797Z,2.90
2018-05-10T15:38:43.324Z,3.20
2018-05-10T15:41:10.888Z,2.90
2018-05-10T15:43:38.427Z,2.73
2018-05-10T15:46:05.984Z,2.50
2018-05-10T15:48:33.572Z,3.27
2018-05-10T15:51:01.133Z,3.40
2018-05-10T15:53:28.687Z,2.57
2018-05-10T15:55:59.676Z,2.93
2018-05-10T15:58:27.221Z,2.20
2018-05-10T16:00:55.533Z,2.07
2018-05-10T16:03:23.066Z,2.00
2018-05-10T16:05:51.388Z,2.50
2018-05-10T16:08:18.949Z,2.80
2018-05-10T16:10:46.489Z,2.30
2018-05-10T16:13:14.011Z,2.40
2018-05-10T16:15:42.594Z,3.83
2018-05-10T16:18:10.154Z,3.60
2018-05-10T16:20:38.482Z,2.53
2018-05-10T16:23:06.040Z,4.17
2018-05-10T16:25:33.612Z,2.93
2018-05-10T16:28:01.212Z,3.30
2018-05-10T16:30:28.756Z,2.43
2018-05-10T16:32:57.178Z,2.60
2018-05-10T16:35:24.668Z,2.50
2018-05-10T16:37:52.214Z,2.73
2018-05-10T16:40:19.771Z,2.47
2018-05-10T16:42:47.311Z,2.50
2018-05-10T16:45:14.969Z,2.73
2018-05-10T16:47:42.502Z,2.23
2018-05-10T16:50:10.843Z,2.27
2018-05-10T16:52:38.375Z,2.50
2018-05-10T16:55:05.909Z,2.20
2018-05-10T16:57:33.481Z,2.23
2018-05-10T17:00:01.104Z,2.73
2018-05-10T17:02:29.425Z,2.10
2018-05-10T17:04:56.999Z,2.47
2018-05-10T17:07:24.523Z,2.57
2018-05-10T17:09:52.082Z,2.43
2018-05-10T17:12:19.620Z,2.20
2018-05-10T17:14:47.963Z,2.03
2018-05-10T17:17:15.501Z,2.77
2018-05-10T17:19:43.032Z,2.90
2018-05-10T17:22:10.579Z,2.57
2018-05-10T17:24:38.123Z,2.30
2018-05-10T17:27:06.436Z,2.33
2018-05-10T17:29:33.970Z,2.13
2018-05-10T17:32:01.555Z,2.10
2018-05-10T17:34:29.084Z,2.07
2018-05-10T17:36:57.459Z,3.60
2018-05-10T17:39:25.741Z,2.53
2018-05-10T17:41:54.214Z,2.40
2018-05-10T17:44:22.517Z,2.20
2018-05-10T17:46:50.038Z,2.43
2018-05-10T17:49:18.334Z,2.60
2018-05-10T17:51:45.898Z,2.20
2018-05-10T17:54:13.502Z,2.40
2018-05-10T17:56:41.043Z,2.90
2018-05-10T17:59:08.593Z,2.83
2018-05-10T18:01:38.040Z,2.83
2018-05-10T18:04:05.782Z,2.60
2018-05-10T18:06:33.320Z,2.40
2018-05-10T18:09:00.862Z,2.70
2018-05-10T18:11:28.554Z,2.37
2018-05-10T18:13:56.630Z,2.77
2018-05-10T18:16:24.891Z,2.70
2018-05-10T18:19:19.815Z,2.50
2018-05-10T18:21:47.832Z,2.60
2018-05-10T18:24:15.372Z,2.57
2018-05-10T18:26:43.673Z,2.40
2018-05-10T18:29:11.196Z,2.80
2018-05-10T18:31:49.332Z,2.43
2018-05-10T18:34:16.881Z,2.23
2018-05-10T18:36:45.207Z,2.00
2018-05-10T18:39:12.762Z,2.40
2018-05-10T18:41:40.290Z,2.33
2018-05-10T18:44:07.835Z,2.33
2018-05-10T18:46:36.145Z,2.20
2018-05-10T18:49:03.684Z,2.17
2018-05-10T18:51:31.214Z,2.20
2018-05-10T18:53:59.537Z,2.10
2018-05-10T18:56:27.063Z,2.20
2018-05-10T18:58:55.471Z,2.20
2018-05-10T19:01:23.008Z,2.40
2018-05-10T19:03:50.553Z,2.30
2018-05-10T19:06:18.846Z,2.40
2018-05-10T19:08:46.396Z,2.37
2018-05-10T19:11:14.679Z,2.13
2018-05-10T19:13:42.221Z,2.00
2018-05-10T19:16:13.006Z,2.40
2018-05-10T19:18:40.562Z,2.10
2018-05-10T19:21:08.142Z,2.40
2018-05-10T19:23:35.748Z,2.17
2018-05-10T19:26:06.358Z,2.07
2018-05-10T19:28:35.702Z,2.40
2018-05-10T19:31:03.246Z,2.30
2018-05-10T19:33:30.793Z,2.20
2018-05-10T19:35:58.514Z,2.23
2018-05-10T19:38:26.057Z,2.43
2018-05-10T19:40:53.595Z,2.43
2018-05-10T19:43:21.117Z,2.57
2018-05-10T19:45:49.417Z,2.13
2018-05-10T19:48:16.980Z,2.33
2018-05-10T19:50:44.530Z,2.57
2018-05-10T19:53:14.179Z,2.53
2018-05-10T19:55:41.716Z,2.47
2018-05-10T19:58:09.286Z,2.40
2018-05-10T20:00:36.835Z,2.10
2018-05-10T20:03:04.387Z,2.20
2018-05-10T20:05:31.964Z,2.40
2018-05-10T20:07:59.527Z,2.63
2018-05-10T20:10:27.165Z,2.30
2018-05-10T20:12:54.729Z,2.40
2018-05-10T20:15:22.420Z,2.33
2018-05-10T20:17:55.112Z,2.20
2018-05-10T20:20:22.709Z,2.10
2018-05-10T20:22:50.265Z,2.03
2018-05-10T20:25:17.804Z,2.20
2018-05-10T20:27:46.125Z,1.93
2018-05-10T20:30:13.672Z,2.03
2018-05-10T20:32:41.237Z,2.00
2018-05-10T20:35:11.910Z,2.20
2018-05-10T20:37:39.483Z,2.30
2018-05-10T20:40:07.068Z,2.17
2018-05-10T20:42:34.618Z,2.30
2018-05-10T20:45:03.085Z,2.23
2018-05-10T20:47:34.914Z,2.90
2018-05-10T20:50:07.621Z,2.00
2018-05-10T20:52:39.474Z,2.23
2018-05-10T20:55:07.083Z,1.87
2018-05-10T20:57:34.594Z,2.07
2018-05-10T21:00:04.216Z,2.20
2018-05-10T21:02:32.582Z,2.87
2018-05-10T21:05:00.121Z,2.37
2018-05-10T21:07:27.673Z,2.20
2018-05-10T21:12:49.060Z,2.20
2018-05-10T21:15:16.643Z,2.30
2018-05-10T21:17:47.835Z,2.33
2018-05-10T21:20:15.417Z,2.87
2018-05-10T21:22:56.141Z,2.50
2018-05-10T21:25:23.739Z,2.67
2018-05-10T21:27:52.040Z,2.67
2018-05-10T21:30:19.576Z,2.83
2018-05-10T21:32:47.120Z,2.63
2018-05-10T21:35:15.427Z,2.60
2018-05-10T21:37:42.997Z,2.30
2018-05-10T21:40:10.603Z,2.67
2018-05-10T21:42:38.232Z,2.47
2018-05-10T21:45:05.781Z,2.40
2018-05-10T21:47:33.437Z,2.80
2018-05-10T21:50:05.667Z,2.60
2018-05-10T21:52:33.195Z,2.70
2018-05-10T21:55:00.772Z,2.87
2018-05-10T21:57:28.442Z,3.73
2018-05-10T21:59:55.977Z,3.03
2018-05-10T22:02:23.592Z,2.77
2018-05-10T22:04:51.147Z,2.77
2018-05-10T22:07:18.690Z,2.40
2018-05-10T22:09:46.236Z,2.80
2018-05-10T22:12:14.590Z,2.53
2018-05-10T22:14:42.186Z,2.60
2018-05-10T22:17:09.713Z,2.17
2018-05-10T22:19:37.251Z,2.67
2018-05-10T22:22:04.798Z,2.90
2018-05-10T22:27:28.855Z,2.57
2018-05-10T22:29:57.207Z,2.83
2018-05-10T22:32:24.709Z,2.50
2018-05-10T22:34:52.266Z,2.30
2018-05-10T22:37:19.798Z,2.17
2018-05-10T22:39:48.172Z,2.30
2018-05-10T22:42:16.480Z,2.20
2018-05-10T22:44:44.064Z,2.20
2018-05-10T22:47:11.622Z,2.80
2018-05-10T22:49:39.183Z,2.50
2018-05-10T22:52:06.707Z,2.40
2018-05-10T22:54:34.247Z,2.40
2018-05-10T22:57:01.803Z,2.50
2018-05-10T22:59:29.336Z,2.20
2018-05-10T23:01:56.878Z,2.30
2018-05-10T23:04:24.427Z,2.53
2018-05-10T23:06:51.951Z,2.63
2018-05-10T23:09:19.491Z,2.60
2018-05-10T23:11:47.800Z,2.73
2018-05-10T23:14:15.348Z,2.33
2018-05-10T23:17:08.253Z,2.37
2018-05-10T23:19:35.797Z,2.67
2018-05-10T23:22:03.327Z,2.90
2018-05-10T23:24:30.881Z,2.60
2018-05-10T23:26:58.636Z,2.30
2018-05-10T23:29:26.262Z,2.50
2018-05-10T23:31:53.815Z,2.20
2018-05-10T23:34:21.424Z,2.60
2018-05-10T23:36:48.982Z,2.40
2018-05-10T23:39:16.542Z,2.67
2018-05-10T23:41:44.075Z,2.23
2018-05-10T23:44:12.377Z,2.40
2018-05-10T23:46:39.956Z,2.33
2018-05-10T23:49:07.488Z,2.47
2018-05-10T23:51:35.078Z,2.40
2018-05-10T23:54:02.599Z,2.30
2018-05-10T23:56:30.153Z,2.47
2018-05-10T23:58:58.516Z,2.50
